Terminal Aerodrome Forecast
Issued by NWS Wilmington, OH

Current Version | Previous Version | Text Only | Print | Product List | Glossary Off
Versions: 1 2 3 4 5 6 7 8 9 10 11 12 13 14 15 16 17 18

000
FTUS41 KILN 232320
TAFDAY
TAF
KDAY 232320Z 2400/2424 30006KT P6SM VCSH SCT030 BKN050
      TEMPO 2400/2401 3SM TSRA BKN025CB
     FM240200 26004KT P6SM SCT040
     FM240900 24004KT 5SM BR SCT250
     FM241300 29005KT P6SM SCT040
     FM241900 33009KT P6SM SCT040=

USA.gov is the U.S. government's official web portal to all federal, state and local government web resources and services.